createdAt,value
2019-01-11T00:00:03.692Z,86.29
2019-01-11T00:02:33.292Z,86.23
2019-01-11T00:05:03.915Z,86.16
2019-01-11T00:07:33.422Z,86.34
2019-01-11T00:10:02.864Z,86.34
2019-01-11T00:12:32.677Z,86.23
2019-01-11T00:15:02.362Z,86.08
2019-01-11T00:17:31.994Z,86.10
2019-01-11T00:20:03.700Z,86.02
2019-01-11T00:22:33.424Z,85.97
2019-01-11T00:25:02.970Z,86.08
2019-01-11T00:27:32.468Z,86.20
2019-01-11T00:30:02.020Z,86.17
2019-01-11T00:32:34.785Z,86.11
2019-01-11T00:35:04.844Z,86.18
2019-01-11T00:37:34.474Z,86.23
2019-01-11T00:40:24.443Z,86.19
2019-01-11T00:42:54.368Z,86.17
2019-01-11T00:45:23.882Z,86.24
2019-01-11T00:47:53.783Z,86.21
2019-01-11T00:50:23.415Z,86.15
2019-01-11T00:52:52.987Z,86.09
2019-01-11T00:55:33.878Z,86.09
2019-01-11T00:58:03.620Z,86.13
2019-01-11T01:00:33.622Z,86.10
2019-01-11T01:03:03.550Z,86.16
2019-01-11T01:06:12.324Z,86.25
2019-01-11T01:08:41.850Z,86.30
2019-01-11T01:11:14.945Z,86.42
2019-01-11T01:14:04.781Z,86.42
2019-01-11T01:16:34.533Z,86.55
2019-01-11T01:19:04.345Z,86.56
2019-01-11T01:24:08.990Z,86.67
2019-01-11T01:26:49.742Z,86.73
2019-01-11T01:29:19.418Z,86.67
2019-01-11T01:31:48.927Z,86.69
2019-01-11T01:34:18.485Z,86.66
2019-01-11T01:36:47.882Z,86.59
2019-01-11T01:39:36.228Z,86.55
2019-01-11T01:42:05.726Z,86.58
2019-01-11T01:44:35.377Z,86.56
2019-01-11T01:47:04.932Z,86.52
2019-01-11T01:49:34.309Z,86.54
2019-01-11T01:52:04.274Z,86.56
2019-01-11T01:54:33.940Z,86.47
2019-01-11T01:57:08.710Z,86.43
2019-01-11T02:02:13.174Z,86.42
2019-01-11T02:10:34.047Z,86.76
2019-01-11T02:18:38.184Z,87.16
2019-01-11T02:23:51.370Z,87.27
2019-01-11T02:26:21.036Z,87.43
2019-01-11T02:28:57.182Z,87.40
2019-01-11T02:31:26.597Z,87.39
2019-01-11T02:33:56.027Z,87.43
2019-01-11T02:39:00.875Z,87.47
2019-01-11T02:41:30.336Z,87.42
2019-01-11T02:44:06.581Z,87.50
2019-01-11T02:46:36.227Z,87.33
2019-01-11T02:49:05.784Z,87.38
2019-01-11T02:51:35.485Z,87.54
2019-01-11T02:54:05.237Z,87.69
2019-01-11T02:56:34.784Z,87.72
2019-01-11T02:59:04.836Z,87.85
2019-01-11T03:01:34.542Z,87.88
2019-01-11T03:04:04.182Z,87.93
2019-01-11T03:06:33.613Z,87.99
2019-01-11T03:09:04.275Z,88.15
2019-01-11T03:11:36.193Z,88.26
2019-01-11T03:14:05.813Z,88.29
2019-01-11T03:16:35.390Z,88.37
2019-01-11T03:19:05.223Z,88.44
2019-01-11T03:24:35.347Z,88.48
2019-01-11T03:27:05.017Z,88.50
2019-01-11T03:29:34.885Z,88.39
2019-01-11T03:32:04.649Z,88.26
2019-01-11T03:37:25.006Z,88.12
2019-01-11T03:39:54.511Z,88.07
2019-01-11T03:42:23.997Z,87.98
2019-01-11T03:44:53.606Z,87.96
2019-01-11T03:47:23.150Z,87.98
2019-01-11T03:49:54.949Z,87.82
2019-01-11T03:52:23.923Z,87.84
2019-01-11T03:54:53.423Z,87.91
2019-01-11T03:57:22.947Z,87.85
2019-01-11T03:59:56.065Z,87.92
2019-01-11T04:02:25.729Z,88.00
2019-01-11T04:04:55.257Z,87.89
2019-01-11T04:07:24.878Z,87.89
2019-01-11T04:09:54.400Z,87.90
2019-01-11T04:12:23.900Z,87.96
2019-01-11T04:14:56.562Z,88.04
2019-01-11T04:17:26.055Z,87.96
2019-01-11T04:20:01.784Z,88.01
2019-01-11T04:22:31.557Z,87.88
2019-01-11T04:25:22.830Z,87.83
2019-01-11T04:27:52.506Z,87.62
2019-01-11T04:30:22.825Z,87.55
2019-01-11T04:32:52.487Z,87.40
2019-01-11T04:35:22.343Z,87.45
2019-01-11T04:37:54.813Z,87.46
2019-01-11T04:40:24.465Z,87.44
2019-01-11T04:42:54.055Z,87.57
2019-01-11T04:45:25.451Z,87.57
2019-01-11T04:47:54.959Z,87.44
2019-01-11T04:50:25.031Z,87.44
2019-01-11T04:52:54.512Z,87.45
2019-01-11T04:55:24.051Z,87.26
2019-01-11T04:57:53.511Z,87.42
2019-01-11T05:00:24.525Z,87.46
2019-01-11T05:05:42.485Z,87.39
2019-01-11T05:08:11.930Z,87.30
2019-01-11T05:10:41.352Z,87.32
2019-01-11T05:13:36.114Z,87.53
2019-01-11T05:16:05.804Z,87.77
2019-01-11T05:18:35.251Z,88.03
2019-01-11T05:21:05.240Z,88.25
2019-01-11T05:23:34.757Z,88.34
2019-01-11T05:26:15.986Z,88.69
2019-01-11T05:28:45.599Z,88.29
2019-01-11T05:31:15.088Z,88.27
2019-01-11T05:34:03.581Z,88.41
2019-01-11T05:36:33.013Z,88.41
2019-01-11T05:39:02.437Z,87.99
2019-01-11T05:41:50.995Z,87.66
2019-01-11T05:44:20.508Z,87.32
2019-01-11T05:46:50.051Z,87.32
2019-01-11T05:49:19.569Z,87.15
2019-01-11T05:52:08.006Z,86.94
2019-01-11T05:54:37.589Z,86.94
2019-01-11T05:57:07.144Z,87.16
2019-01-11T05:59:36.555Z,87.39
2019-01-11T06:02:06.386Z,87.53
2019-01-11T06:04:56.462Z,87.73
2019-01-11T06:07:44.915Z,87.65
2019-01-11T06:10:16.067Z,87.71
2019-01-11T06:12:45.489Z,87.60
2019-01-11T06:15:15.465Z,87.73
2019-01-11T06:17:44.912Z,87.51
2019-01-11T06:20:16.092Z,87.62
2019-01-11T06:22:45.610Z,87.49
2019-01-11T06:25:15.042Z,87.17
2019-01-11T06:27:55.767Z,87.17
2019-01-11T06:30:25.488Z,87.54
2019-01-11T06:32:57.662Z,87.76
2019-01-11T06:35:27.224Z,87.95
2019-01-11T06:37:56.974Z,88.05
2019-01-11T06:40:26.455Z,88.06
2019-01-11T06:43:05.522Z,88.27
2019-01-11T06:45:37.220Z,88.45
2019-01-11T06:53:23.104Z,88.69
2019-01-11T06:55:52.668Z,88.47
2019-01-11T06:58:22.079Z,88.77
2019-01-11T07:00:51.574Z,89.01
2019-01-11T07:03:21.843Z,89.07
2019-01-11T07:05:52.227Z,89.28
2019-01-11T07:08:21.702Z,89.33
2019-01-11T07:10:51.334Z,89.53
2019-01-11T07:13:20.713Z,89.41
2019-01-11T07:15:50.150Z,89.33
2019-01-11T07:18:19.677Z,89.30
2019-01-11T07:20:49.075Z,89.27
2019-01-11T07:23:18.477Z,89.18
2019-01-11T07:28:34.939Z,89.43
2019-01-11T07:31:08.056Z,89.70
2019-01-11T07:33:40.730Z,89.59
2019-01-11T07:36:29.169Z,89.61
2019-01-11T07:39:38.048Z,89.99
2019-01-11T07:44:43.162Z,90.07
2019-01-11T07:47:12.662Z,90.25
2019-01-11T07:49:42.204Z,90.39
2019-01-11T07:52:11.745Z,90.33
2019-01-11T07:54:41.228Z,90.31
2019-01-11T07:57:10.741Z,90.29
2019-01-11T07:59:42.829Z,90.44
2019-01-11T08:04:47.861Z,90.07
2019-01-11T08:07:28.563Z,90.16
2019-01-11T08:10:09.690Z,90.38
2019-01-11T08:12:39.163Z,90.62
2019-01-11T08:15:29.285Z,90.99
2019-01-11T08:23:43.327Z,90.97
2019-01-11T08:26:24.856Z,91.02
2019-01-11T08:28:54.308Z,91.36
2019-01-11T08:31:23.844Z,91.40
2019-01-11T08:36:30.151Z,91.61
2019-01-11T08:38:59.582Z,91.33
2019-01-11T08:41:32.245Z,91.27
2019-01-11T08:44:01.685Z,91.25
2019-01-11T08:46:31.200Z,91.49
2019-01-11T08:49:00.660Z,91.63
2019-01-11T08:51:30.772Z,91.64
2019-01-11T08:54:00.175Z,91.50
2019-01-11T08:56:29.609Z,91.54
2019-01-11T08:58:59.292Z,91.75
2019-01-11T09:01:28.766Z,91.63
2019-01-11T09:03:58.372Z,91.78
2019-01-11T09:06:30.187Z,91.95
2019-01-11T09:08:59.575Z,91.64
2019-01-11T09:11:29.301Z,91.46
2019-01-11T09:13:59.166Z,91.56
2019-01-11T09:19:44.207Z,91.33
2019-01-11T09:22:13.637Z,91.41
2019-01-11T09:24:43.132Z,91.49
2019-01-11T09:27:31.514Z,91.42
2019-01-11T09:30:00.942Z,91.46
2019-01-11T09:32:30.483Z,91.52
2019-01-11T09:34:59.941Z,91.37
2019-01-11T09:37:29.382Z,91.01
2019-01-11T09:40:01.415Z,91.21
2019-01-11T09:42:30.903Z,90.67
2019-01-11T09:45:00.328Z,90.67
2019-01-11T09:47:29.789Z,90.47
2019-01-11T09:52:34.247Z,90.22
2019-01-11T09:55:04.399Z,90.08
2019-01-11T09:57:34.013Z,89.87
2019-01-11T10:00:03.817Z,90.03
2019-01-11T10:02:54.150Z,89.94
2019-01-11T10:05:35.338Z,89.89
2019-01-11T10:10:42.970Z,89.65
2019-01-11T10:13:31.423Z,89.65
2019-01-11T10:16:00.873Z,89.77
2019-01-11T10:18:30.328Z,89.63
2019-01-11T10:20:59.819Z,89.40
2019-01-11T10:23:29.471Z,89.14
2019-01-11T10:25:58.970Z,88.93
2019-01-11T10:28:28.385Z,88.73
2019-01-11T10:31:00.755Z,88.21
2019-01-11T10:33:35.948Z,88.21
2019-01-11T10:36:00.981Z,88.40
2019-01-11T10:38:30.443Z,88.04
2019-01-11T10:40:59.892Z,88.14
2019-01-11T10:43:29.391Z,87.96
2019-01-11T10:46:31.849Z,87.64
2019-01-11T10:49:01.395Z,87.64
2019-01-11T10:51:30.967Z,87.86
2019-01-11T10:54:00.453Z,87.85
2019-01-11T10:56:30.060Z,88.00
2019-01-11T10:58:59.497Z,87.95
2019-01-11T11:01:29.032Z,87.95
2019-01-11T11:03:58.926Z,87.85
2019-01-11T11:09:12.134Z,87.39
2019-01-11T11:14:35.117Z,86.50
2019-01-11T11:17:04.865Z,86.50
2019-01-11T11:19:34.275Z,86.08
2019-01-11T11:22:06.507Z,86.00
2019-01-11T11:24:35.963Z,85.76
2019-01-11T11:27:05.908Z,85.85
2019-01-11T11:34:56.251Z,85.24
2019-01-11T11:40:16.145Z,84.79
2019-01-11T11:42:45.691Z,84.52
2019-01-11T11:45:35.517Z,84.46
2019-01-11T11:48:13.755Z,84.35
2019-01-11T11:50:43.222Z,84.23
2019-01-11T11:53:12.737Z,84.27
2019-01-11T11:55:42.148Z,84.22
2019-01-11T11:58:11.813Z,84.41
2019-01-11T12:00:41.250Z,84.38
2019-01-11T12:03:29.813Z,84.42
2019-01-11T12:05:59.482Z,84.37
2019-01-11T12:08:29.450Z,84.40
2019-01-11T12:10:58.996Z,84.39
2019-01-11T12:13:28.444Z,84.33
2019-01-11T12:15:57.931Z,84.19
2019-01-11T12:21:04.040Z,84.35
2019-01-11T12:23:33.624Z,84.35
2019-01-11T12:26:03.357Z,84.13
2019-01-11T12:28:32.972Z,83.87
2019-01-11T12:31:02.442Z,83.98
2019-01-11T12:33:31.849Z,83.66
2019-01-11T12:36:01.285Z,83.48
2019-01-11T12:38:30.754Z,82.58
2019-01-11T12:41:00.357Z,82.58
2019-01-11T12:43:29.939Z,82.72
2019-01-11T12:45:59.437Z,82.51
2019-01-11T12:48:28.916Z,82.14
2019-01-11T12:50:58.320Z,82.00
2019-01-11T12:56:05.667Z,81.04
2019-01-11T12:58:46.259Z,80.79
2019-01-11T13:01:27.288Z,79.72
2019-01-11T13:04:11.967Z,79.72
2019-01-11T13:06:41.403Z,78.99
2019-01-11T13:09:11.060Z,78.47
2019-01-11T13:11:40.536Z,78.62
2019-01-11T13:14:29.290Z,78.82
2019-01-11T13:22:30.636Z,78.36
2019-01-11T13:25:00.236Z,77.94
2019-01-11T13:27:45.369Z,77.75
2019-01-11T13:30:03.478Z,77.12
2019-01-11T13:32:33.053Z,75.82
2019-01-11T13:35:16.478Z,75.61
2019-01-11T13:37:33.689Z,75.24
2019-01-11T13:42:37.752Z,74.71
2019-01-11T13:45:07.755Z,74.32
2019-01-11T13:47:37.176Z,74.45
2019-01-11T13:50:44.673Z,75.36
2019-01-11T13:53:26.423Z,76.06
2019-01-11T13:55:56.252Z,75.83
2019-01-11T13:58:25.989Z,75.83
2019-01-11T14:00:55.700Z,75.24
2019-01-11T14:06:01.282Z,74.69
2019-01-11T14:11:25.387Z,73.60
2019-01-11T14:13:55.036Z,73.48
2019-01-11T14:16:24.525Z,72.89
2019-01-11T14:18:54.214Z,73.04
2019-01-11T14:21:23.775Z,72.77
2019-01-11T14:23:53.230Z,72.88
2019-01-11T14:26:22.906Z,73.00
2019-01-11T14:28:52.349Z,72.99
2019-01-11T14:31:22.019Z,72.59
2019-01-11T14:36:26.509Z,72.90
2019-01-11T14:39:07.431Z,73.04
2019-01-11T14:41:37.523Z,72.97
2019-01-11T14:44:12.058Z,72.98
2019-01-11T14:47:00.751Z,72.39
2019-01-11T14:49:52.394Z,72.82
2019-01-11T14:52:22.042Z,72.82
2019-01-11T14:54:51.675Z,73.42
2019-01-11T14:57:21.668Z,73.42
2019-01-11T14:59:51.287Z,73.04
2019-01-11T15:02:21.036Z,72.66
2019-01-11T15:04:50.951Z,72.54
2019-01-11T15:07:20.486Z,71.95
2019-01-11T15:09:50.065Z,72.05
2019-01-11T15:12:21.917Z,72.00
2019-01-11T15:14:54.498Z,71.92
2019-01-11T15:17:43.108Z,71.37
2019-01-11T15:23:13.450Z,71.24
2019-01-11T15:25:51.954Z,70.83
2019-01-11T15:28:24.002Z,70.83
2019-01-11T15:30:56.180Z,70.67
2019-01-11T15:33:26.066Z,70.69
2019-01-11T15:35:55.764Z,70.21
2019-01-11T15:38:25.473Z,69.54
2019-01-11T15:40:55.234Z,69.38
2019-01-11T15:43:27.256Z,68.61
2019-01-11T15:48:59.897Z,67.72
2019-01-11T15:51:31.206Z,67.34
2019-01-11T15:56:50.249Z,66.99
2019-01-11T15:59:19.685Z,66.43
2019-01-11T16:02:10.309Z,65.75
2019-01-11T16:04:54.666Z,65.39
2019-01-11T16:07:24.317Z,65.76
2019-01-11T16:10:03.785Z,65.29
2019-01-11T16:13:17.122Z,65.36
2019-01-11T16:16:29.544Z,65.59
2019-01-11T16:18:59.428Z,65.60
2019-01-11T16:21:31.141Z,65.28
2019-01-11T16:24:00.688Z,65.30
2019-01-11T16:26:30.205Z,65.35
2019-01-11T16:28:59.774Z,65.37
2019-01-11T16:31:29.378Z,64.89
2019-01-11T16:34:06.342Z,64.64
2019-01-11T16:36:54.919Z,64.53
2019-01-11T16:39:24.400Z,64.53
2019-01-11T16:42:12.833Z,63.96
2019-01-11T16:44:42.748Z,63.63
2019-01-11T16:47:12.257Z,63.27
2019-01-11T16:50:00.851Z,63.23
2019-01-11T16:52:30.297Z,63.23
2019-01-11T16:55:18.806Z,63.54
2019-01-11T16:58:07.466Z,62.43
2019-01-11T17:00:37.323Z,62.43
2019-01-11T17:03:07.171Z,61.72
2019-01-11T17:05:36.682Z,61.72
2019-01-11T17:08:06.465Z,62.21
2019-01-11T17:10:36.006Z,61.98
2019-01-11T17:13:24.530Z,61.98
2019-01-11T17:18:47.808Z,61.67
2019-01-11T17:21:17.229Z,61.24
2019-01-11T17:23:46.657Z,61.11
2019-01-11T17:26:16.167Z,61.24
2019-01-11T17:28:45.668Z,61.41
2019-01-11T17:31:15.173Z,61.20
2019-01-11T17:33:44.720Z,60.95
2019-01-11T17:36:35.261Z,61.26
2019-01-11T17:39:25.389Z,61.26
2019-01-11T17:41:56.871Z,61.15
2019-01-11T17:44:29.400Z,60.99
2019-01-11T17:46:58.944Z,60.83
2019-01-11T17:49:28.390Z,61.12
2019-01-11T17:51:58.072Z,61.12
2019-01-11T17:54:27.575Z,60.99
2019-01-11T17:56:57.137Z,61.15
2019-01-11T17:59:26.878Z,61.07
2019-01-11T18:01:56.459Z,61.27
2019-01-11T18:04:26.050Z,61.00
2019-01-11T18:06:55.563Z,61.39
2019-01-11T18:09:25.187Z,60.98
2019-01-11T18:12:20.028Z,61.00
2019-01-11T18:17:40.579Z,61.23
2019-01-11T18:20:29.499Z,61.18
2019-01-11T18:22:58.953Z,60.91
2019-01-11T18:25:28.490Z,60.90
2019-01-11T18:27:57.967Z,60.89
2019-01-11T18:30:27.425Z,60.85
2019-01-11T18:32:57.130Z,60.76
2019-01-11T18:35:26.555Z,60.47
2019-01-11T18:38:08.042Z,60.73
2019-01-11T18:40:38.752Z,60.73
2019-01-11T18:43:08.446Z,60.36
2019-01-11T18:45:39.680Z,60.24
2019-01-11T18:48:09.105Z,60.02
2019-01-11T18:50:38.590Z,59.99
2019-01-11T18:53:13.738Z,60.20
2019-01-11T18:55:39.626Z,60.20
2019-01-11T18:58:09.030Z,59.68
2019-01-11T19:00:41.198Z,59.49
2019-01-11T19:03:10.718Z,59.33
2019-01-11T19:05:40.263Z,59.41
2019-01-11T19:08:09.881Z,59.13
2019-01-11T19:10:39.729Z,59.38
2019-01-11T19:13:09.329Z,59.17
2019-01-11T19:15:39.030Z,58.83
2019-01-11T19:18:08.401Z,58.83
2019-01-11T19:20:37.844Z,59.15
2019-01-11T19:23:07.433Z,59.06
2019-01-11T19:25:36.894Z,59.27
2019-01-11T19:28:06.317Z,59.12
2019-01-11T19:30:36.193Z,59.22
2019-01-11T19:33:26.020Z,59.30
2019-01-11T19:35:55.796Z,59.21
2019-01-11T19:38:25.418Z,59.43
2019-01-11T19:40:55.267Z,59.69
2019-01-11T19:43:43.813Z,59.51
2019-01-11T19:46:13.327Z,59.42
2019-01-11T19:49:04.456Z,59.21
2019-01-11T19:51:47.126Z,59.21
2019-01-11T19:54:28.438Z,59.79
2019-01-11T19:56:58.197Z,59.66
2019-01-11T19:59:27.811Z,59.66
2019-01-11T20:02:16.289Z,59.89
2019-01-11T20:04:57.236Z,59.84
2019-01-11T20:07:37.955Z,59.84
2019-01-11T20:10:19.517Z,59.98
2019-01-11T20:12:49.059Z,60.06
2019-01-11T20:15:38.890Z,60.06
2019-01-11T20:18:20.896Z,60.40
2019-01-11T20:20:50.917Z,60.40
2019-01-11T20:23:20.426Z,60.69
2019-01-11T20:25:50.029Z,60.67
2019-01-11T20:28:19.486Z,60.52
2019-01-11T20:30:48.943Z,60.60
2019-01-11T20:33:18.417Z,60.61
2019-01-11T20:35:47.860Z,60.92
2019-01-11T20:38:17.636Z,60.62
2019-01-11T20:40:47.306Z,60.57
2019-01-11T20:43:16.740Z,60.62
2019-01-11T20:45:46.147Z,60.92
2019-01-11T20:48:15.691Z,61.13
2019-01-11T20:51:04.367Z,61.24
2019-01-11T20:53:34.072Z,61.24
2019-01-11T20:56:03.497Z,61.18
2019-01-11T20:58:32.920Z,61.32
2019-01-11T21:01:02.794Z,61.13
2019-01-11T21:03:32.217Z,61.60
2019-01-11T21:06:01.682Z,61.09
2019-01-11T21:08:31.096Z,61.16
2019-01-11T21:11:23.710Z,61.39
2019-01-11T21:13:53.549Z,61.39
2019-01-11T21:16:42.311Z,61.68
2019-01-11T21:19:11.853Z,61.05
2019-01-11T21:21:44.105Z,61.05
2019-01-11T21:24:13.931Z,61.51
2019-01-11T21:26:43.543Z,61.29
2019-01-11T21:29:12.976Z,61.17
2019-01-11T21:31:42.770Z,61.17
2019-01-11T21:34:12.826Z,61.15
2019-01-11T21:36:42.323Z,60.91
2019-01-11T21:39:11.741Z,60.96
2019-01-11T21:41:41.190Z,61.19
2019-01-11T21:44:10.778Z,60.81
2019-01-11T21:46:40.148Z,60.65
2019-01-11T21:49:09.931Z,60.32
2019-01-11T21:51:39.381Z,60.61
2019-01-11T21:54:08.783Z,60.11
2019-01-11T21:56:38.371Z,60.86
2019-01-11T21:59:07.791Z,60.79
2019-01-11T22:04:26.052Z,60.88
2019-01-11T22:06:55.464Z,60.89
2019-01-11T22:09:24.914Z,61.05
2019-01-11T22:11:54.409Z,60.89
2019-01-11T22:14:23.921Z,60.66
2019-01-11T22:16:53.360Z,60.54
2019-01-11T22:19:23.392Z,61.02
2019-01-11T22:21:53.024Z,61.34
2019-01-11T22:24:22.669Z,61.84
2019-01-11T22:26:52.347Z,62.41
2019-01-11T22:29:41.119Z,62.50
2019-01-11T22:32:10.609Z,62.50
2019-01-11T22:34:40.063Z,62.78
2019-01-11T22:37:09.535Z,63.45
2019-01-11T22:39:58.116Z,63.44
2019-01-11T22:42:27.766Z,63.84
2019-01-11T22:44:57.403Z,63.84
2019-01-11T22:47:27.026Z,63.47
2019-01-11T22:49:56.453Z,63.58
2019-01-11T22:52:45.203Z,63.53
2019-01-11T22:55:36.195Z,63.53
2019-01-11T22:58:06.082Z,63.93
2019-01-11T23:00:59.752Z,63.76
2019-01-11T23:03:36.635Z,63.97
2019-01-11T23:06:43.077Z,63.97
2019-01-11T23:09:15.302Z,64.03
2019-01-11T23:12:23.017Z,63.71
2019-01-11T23:15:04.743Z,64.29
2019-01-11T23:17:47.514Z,64.29
2019-01-11T23:20:17.152Z,63.06
2019-01-11T23:25:46.235Z,63.28
2019-01-11T23:28:15.887Z,63.28
2019-01-11T23:31:04.364Z,63.26
2019-01-11T23:33:34.053Z,63.26
2019-01-11T23:36:03.619Z,63.37
2019-01-11T23:38:52.234Z,63.51
2019-01-11T23:41:21.915Z,63.51
2019-01-11T23:43:51.397Z,63.66
2019-01-11T23:46:20.876Z,62.77
2019-01-11T23:48:50.330Z,62.77
2019-01-11T23:51:20.053Z,63.36
2019-01-11T23:53:50.721Z,63.32
2019-01-11T23:56:32.875Z,63.46
2019-01-11T23:59:02.771Z,63.46
